Time;durP1;ratioP1;P1;durP2;ratioP2;P2;SDS_P1;SDS_P2;PMS_P1;PMS_P2;Temp;Humidity;BMP_temperature;BMP_pressure;BME280_temperature;BME280_humidity;BME280_pressure;Samples;Min_cycle;Max_cycle;Signal;HPM_P1;HPM_P2
2023/02/08 00:00:04;;;;;;;5.47;1.05;;;;;;;;;;5021769;28;20045;-60
2023/02/08 00:02:31;;;;;;;8.93;1.00;;;;;;;;;;5015393;28;20045;-62
2023/02/08 00:04:58;;;;;;;6.57;1.00;;;;;;;;;;5016886;28;20471;-60
2023/02/08 00:07:24;;;;;;;2.90;1.02;;;;;;;;;;5018930;28;20056;-60
2023/02/08 00:09:51;;;;;;;3.10;0.90;;;;;;;;;;5017725;28;20041;-59
2023/02/08 00:12:17;;;;;;;2.97;0.90;;;;;;;;;;5019967;28;20129;-59
2023/02/08 00:14:44;;;;;;;9.18;3.28;;;;;;;;;;5025119;28;20065;-59
2023/02/08 00:17:11;;;;;;;3.67;1.20;;;;;;;;;;5024633;28;20072;-59
2023/02/08 00:19:37;;;;;;;3.83;0.93;;;;;;;;;;5025074;28;20044;-62
2023/02/08 00:22:04;;;;;;;6.75;0.93;;;;;;;;;;5025831;28;21094;-61
2023/02/08 00:24:31;;;;;;;3.88;0.98;;;;;;;;;;5027562;28;20110;-59
2023/02/08 00:26:57;;;;;;;10.10;2.17;;;;;;;;;;5029611;28;20052;-58
2023/02/08 00:29:24;;;;;;;4.22;1.23;;;;;;;;;;5019848;28;20044;-61
2023/02/08 00:31:50;;;;;;;9.43;1.30;;;;;;;;;;5023670;28;20927;-60
2023/02/08 00:34:17;;;;;;;7.10;1.42;;;;;;;;;;5022381;28;20045;-59
2023/02/08 00:36:44;;;;;;;3.95;1.10;;;;;;;;;;5022775;28;20095;-61
2023/02/08 00:39:10;;;;;;;2.75;0.93;;;;;;;;;;5022852;28;20041;-61
2023/02/08 00:41:37;;;;;;;3.70;1.23;;;;;;;;;;5021486;28;20037;-62
2023/02/08 00:44:04;;;;;;;4.05;1.20;;;;;;;;;;5023350;28;20041;-61
2023/02/08 00:46:30;;;;;;;5.32;1.10;;;;;;;;;;5024368;28;20382;-61
2023/02/08 00:48:57;;;;;;;3.75;1.13;;;;;;;;;;5026122;28;20038;-60
2023/02/08 00:51:23;;;;;;;3.00;1.00;;;;;;;;;;5023740;28;20037;-59
2023/02/08 00:53:50;;;;;;;6.72;1.20;;;;;;;;;;5025581;28;20364;-59
2023/02/08 00:56:17;;;;;;;4.30;1.48;;;;;;;;;;5026527;28;20045;-60
2023/02/08 00:58:44;;;;;;;4.15;1.00;;;;;;;;;;5025412;28;20041;-61
2023/02/08 01:01:11;;;;;;;5.32;1.30;;;;;;;;;;5028229;28;20362;-60
2023/02/08 01:03:38;;;;;;;6.68;1.20;;;;;;;;;;5025770;28;20025;-61
2023/02/08 01:06:06;;;;;;;6.00;1.15;;;;;;;;;;5024556;28;20042;-62
2023/02/08 01:08:33;;;;;;;6.57;1.50;;;;;;;;;;5021740;28;20124;-62
2023/02/08 01:11:08;;;;;;;4.93;1.30;;;;;;;;;;5024674;28;20041;-63
2023/02/08 01:13:35;;;;;;;3.58;1.20;;;;;;;;;;5022599;28;20171;-61
2023/02/08 01:16:08;;;;;;;4.15;1.48;;;;;;;;;;5023846;28;20038;-63
2023/02/08 01:18:34;;;;;;;4.97;1.52;;;;;;;;;;5022964;28;20629;-59
2023/02/08 01:21:05;;;;;;;5.15;1.65;;;;;;;;;;5023398;28;20144;-62
2023/02/08 01:23:35;;;;;;;5.70;1.50;;;;;;;;;;5020021;28;20056;-61
2023/02/08 01:26:02;;;;;;;9.27;1.92;;;;;;;;;;5020449;28;20172;-61
2023/02/08 01:28:31;;;;;;;5.32;1.60;;;;;;;;;;5018949;28;20055;-61
2023/02/08 01:30:58;;;;;;;6.70;1.85;;;;;;;;;;5021831;28;20075;-60
2023/02/08 01:33:25;;;;;;;7.95;1.45;;;;;;;;;;5022294;28;20051;-62
2023/02/08 01:35:52;;;;;;;5.80;1.80;;;;;;;;;;5025247;28;20350;-61
2023/02/08 01:38:19;;;;;;;3.55;1.67;;;;;;;;;;5027935;28;20842;-61
2023/02/08 01:40:46;;;;;;;9.48;2.40;;;;;;;;;;5028723;28;20060;-60
2023/02/08 01:43:20;;;;;;;5.07;2.20;;;;;;;;;;5026508;28;20508;-61
2023/02/08 01:45:46;;;;;;;7.25;3.72;;;;;;;;;;5020616;28;20057;-62
2023/02/08 01:48:16;;;;;;;10.90;2.28;;;;;;;;;;5020208;28;20505;-60
2023/02/08 01:50:47;;;;;;;5.97;2.13;;;;;;;;;;5020069;28;20045;-63
2023/02/08 01:53:14;;;;;;;8.43;2.20;;;;;;;;;;5019757;28;20041;-60
2023/02/08 01:55:44;;;;;;;5.72;2.20;;;;;;;;;;5017741;28;20229;-64
2023/02/08 01:58:12;;;;;;;5.78;2.20;;;;;;;;;;5019239;28;20045;-64
2023/02/08 02:00:39;;;;;;;4.88;2.00;;;;;;;;;;5020094;28;20065;-63
2023/02/08 02:03:06;;;;;;;7.68;2.30;;;;;;;;;;5019502;28;20250;-62
2023/02/08 02:05:35;;;;;;;6.80;2.67;;;;;;;;;;5022576;28;20132;-60
2023/02/08 02:08:01;;;;;;;8.18;2.33;;;;;;;;;;5024795;28;20029;-60
2023/02/08 02:10:31;;;;;;;9.73;2.70;;;;;;;;;;5024483;28;20071;-59
2023/02/08 02:13:00;;;;;;;13.15;4.00;;;;;;;;;;5022221;28;20330;-61
2023/02/08 02:15:27;;;;;;;6.82;3.00;;;;;;;;;;5023185;28;20041;-60
2023/02/08 02:17:56;;;;;;;7.07;2.85;;;;;;;;;;5024176;28;20494;-62
2023/02/08 02:20:41;;;;;;;8.38;2.72;;;;;;;;;;5021930;28;20048;-60
2023/02/08 02:23:23;;;;;;;8.15;3.83;;;;;;;;;;5021616;28;20506;-59
2023/02/08 02:25:59;;;;;;;9.18;3.35;;;;;;;;;;5015962;28;20057;-61
2023/02/08 02:28:46;;;;;;;9.90;3.47;;;;;;;;;;5014972;28;20045;-61
2023/02/08 02:31:12;;;;;;;10.95;3.40;;;;;;;;;;4951375;28;20075;-61
2023/02/08 02:33:48;;;;;;;7.30;2.33;;;;;;;;;;5002002;28;20159;-59
2023/02/08 02:36:15;;;;;;;5.47;2.63;;;;;;;;;;5002809;28;20199;-60
2023/02/08 02:39:03;;;;;;;7.15;2.60;;;;;;;;;;5000684;28;20091;-62
2023/02/08 02:44:34;;;;;;;7.30;2.63;;;;;;;;;;5000722;28;20049;-60
2023/02/08 02:47:05;;;;;;;11.30;3.28;;;;;;;;;;5000915;28;20475;-62
2023/02/08 02:49:44;;;;;;;6.88;2.95;;;;;;;;;;4999656;28;20184;-64
2023/02/08 02:52:12;;;;;;;10.55;4.45;;;;;;;;;;5000513;28;22284;-61
2023/02/08 02:54:42;;;;;;;9.57;3.10;;;;;;;;;;4999458;28;20049;-61
2023/02/08 02:57:11;;;;;;;7.28;2.72;;;;;;;;;;5000354;28;20136;-62
2023/02/08 02:59:39;;;;;;;7.25;2.58;;;;;;;;;;4999209;28;20253;-60
2023/02/08 03:02:06;;;;;;;8.30;2.28;;;;;;;;;;4999941;28;20038;-59
2023/02/08 03:04:32;;;;;;;6.28;2.30;;;;;;;;;;4980696;28;20125;-65
2023/02/08 03:06:59;;;;;;;6.10;2.33;;;;;;;;;;4999604;28;20224;-61
2023/02/08 03:09:31;;;;;;;5.50;2.35;;;;;;;;;;4998746;28;20451;-59
2023/02/08 03:12:16;;;;;;;11.73;2.50;;;;;;;;;;4999909;28;20049;-59
2023/02/08 03:14:43;;;;;;;9.82;3.45;;;;;;;;;;5000489;28;20038;-60
2023/02/08 03:17:12;;;;;;;6.93;2.72;;;;;;;;;;5000256;28;20065;-63
2023/02/08 03:19:59;;;;;;;9.25;2.72;;;;;;;;;;5000492;28;20042;-61
2023/02/08 03:22:31;;;;;;;5.35;2.40;;;;;;;;;;5000438;28;20034;-64
2023/02/08 03:25:02;;;;;;;6.10;2.67;;;;;;;;;;5001143;28;20053;-62
2023/02/08 03:27:48;;;;;;;10.32;2.28;;;;;;;;;;4999273;28;20447;-61
2023/02/08 03:30:27;;;;;;;7.68;2.70;;;;;;;;;;5000477;28;20047;-62
2023/02/08 03:33:02;;;;;;;10.02;2.53;;;;;;;;;;5009012;28;20033;-59
2023/02/08 03:36:04;;;;;;;7.47;2.55;;;;;;;;;;5010216;28;20064;-60
2023/02/08 03:38:43;;;;;;;5.57;2.30;;;;;;;;;;4935018;29;20774;-60
2023/02/08 03:41:14;;;;;;;8.23;2.67;;;;;;;;;;4991008;28;20092;-61
2023/02/08 03:44:01;;;;;;;7.50;2.38;;;;;;;;;;5001283;28;20125;-58
2023/02/08 03:46:30;;;;;;;7.78;2.13;;;;;;;;;;4997897;28;20121;-62
2023/02/08 03:49:13;;;;;;;9.10;2.50;;;;;;;;;;4998855;28;20088;-61
2023/02/08 03:51:40;;;;;;;6.87;2.77;;;;;;;;;;4998179;28;20819;-61
2023/02/08 03:54:09;;;;;;;8.82;2.63;;;;;;;;;;4999496;28;20046;-62
2023/02/08 03:56:40;;;;;;;6.13;2.63;;;;;;;;;;4991896;28;20092;-62
2023/02/08 03:59:13;;;;;;;10.40;2.33;;;;;;;;;;5012775;28;20494;-62
2023/02/08 04:01:45;;;;;;;5.55;2.05;;;;;;;;;;5001554;28;20172;-60
2023/02/08 04:04:13;;;;;;;6.72;2.17;;;;;;;;;;5003002;28;20052;-61
2023/02/08 04:06:40;;;;;;;8.25;2.33;;;;;;;;;;5001783;28;20050;-61
2023/02/08 04:09:07;;;;;;;5.28;2.00;;;;;;;;;;5001317;28;20038;-61
2023/02/08 04:11:33;;;;;;;6.22;2.30;;;;;;;;;;5001727;28;20050;-61
2023/02/08 04:14:00;;;;;;;7.53;2.08;;;;;;;;;;5001780;28;20042;-61
2023/02/08 04:16:27;;;;;;;9.57;2.20;;;;;;;;;;5001476;28;20042;-63
2023/02/08 04:18:53;;;;;;;5.15;1.73;;;;;;;;;;5002662;28;20192;-63
2023/02/08 04:21:20;;;;;;;8.32;2.00;;;;;;;;;;5002039;28;20066;-60
2023/02/08 04:23:47;;;;;;;6.80;2.10;;;;;;;;;;5001210;28;20080;-60
2023/02/08 04:26:13;;;;;;;6.22;2.03;;;;;;;;;;5002168;28;20041;-61
2023/02/08 04:28:40;;;;;;;10.13;2.20;;;;;;;;;;5000278;28;20041;-64
2023/02/08 04:31:07;;;;;;;6.47;1.75;;;;;;;;;;5000785;28;20818;-61
2023/02/08 04:33:33;;;;;;;7.53;1.95;;;;;;;;;;5000680;28;20041;-62
2023/02/08 04:36:00;;;;;;;6.85;1.33;;;;;;;;;;5002444;28;20038;-62
2023/02/08 04:38:27;;;;;;;5.20;1.48;;;;;;;;;;5001494;28;20046;-62
2023/02/08 04:40:53;;;;;;;5.45;1.65;;;;;;;;;;5001057;28;20046;-64
2023/02/08 04:43:20;;;;;;;11.00;1.70;;;;;;;;;;5000991;28;20045;-62
2023/02/08 04:45:47;;;;;;;6.85;1.70;;;;;;;;;;5016636;28;20150;-62
2023/02/08 04:48:14;;;;;;;6.03;1.80;;;;;;;;;;5001828;28;20144;-63
2023/02/08 04:50:40;;;;;;;7.28;1.52;;;;;;;;;;5001920;28;20127;-63
2023/02/08 04:53:07;;;;;;;5.22;1.52;;;;;;;;;;5002318;28;20045;-62
2023/02/08 04:55:34;;;;;;;3.25;1.40;;;;;;;;;;5001701;28;20042;-64
2023/02/08 04:58:00;;;;;;;5.50;1.58;;;;;;;;;;5002069;28;20108;-60
2023/02/08 05:00:28;;;;;;;5.70;1.40;;;;;;;;;;5001833;28;20053;-63
2023/02/08 05:02:55;;;;;;;5.82;1.90;;;;;;;;;;5001848;28;20050;-59
2023/02/08 05:05:23;;;;;;;4.60;1.30;;;;;;;;;;5002156;28;20062;-62
2023/02/08 05:07:49;;;;;;;3.22;1.40;;;;;;;;;;5001016;28;20042;-61
2023/02/08 05:10:16;;;;;;;6.60;1.40;;;;;;;;;;4998668;28;20065;-63
2023/02/08 05:12:43;;;;;;;6.43;1.67;;;;;;;;;;5001065;28;20511;-58
2023/02/08 05:15:10;;;;;;;4.63;1.30;;;;;;;;;;5003438;28;20130;-62
2023/02/08 05:17:37;;;;;;;3.72;1.63;;;;;;;;;;5002450;28;20049;-60
2023/02/08 05:20:05;;;;;;;3.40;1.30;;;;;;;;;;5001229;28;20136;-62
2023/02/08 05:22:32;;;;;;;5.78;1.60;;;;;;;;;;5000792;28;20042;-59
2023/02/08 05:24:59;;;;;;;6.63;1.83;;;;;;;;;;5001626;28;20068;-63
2023/02/08 05:27:26;;;;;;;6.68;1.77;;;;;;;;;;5002311;28;20099;-59
2023/02/08 05:29:52;;;;;;;6.70;2.10;;;;;;;;;;5001909;28;20582;-62
2023/02/08 05:32:19;;;;;;;6.53;1.88;;;;;;;;;;5001333;28;20068;-61
2023/02/08 05:34:46;;;;;;;6.55;2.10;;;;;;;;;;5002814;28;20088;-60
2023/02/08 05:37:13;;;;;;;5.72;2.00;;;;;;;;;;5001324;28;20056;-60
2023/02/08 05:39:40;;;;;;;4.70;1.70;;;;;;;;;;4998818;28;20061;-61
2023/02/08 05:42:07;;;;;;;3.85;1.58;;;;;;;;;;5001068;28;20117;-61
2023/02/08 05:44:33;;;;;;;4.38;1.60;;;;;;;;;;5001386;28;20777;-61
2023/02/08 05:47:00;;;;;;;4.18;1.42;;;;;;;;;;5001300;28;20041;-61
2023/02/08 05:49:27;;;;;;;3.38;1.20;;;;;;;;;;5000595;28;20120;-60
2023/02/08 05:51:54;;;;;;;6.00;1.70;;;;;;;;;;5001426;28;20061;-61
2023/02/08 05:54:20;;;;;;;5.10;1.50;;;;;;;;;;4999943;28;20046;-62
2023/02/08 05:56:47;;;;;;;5.57;1.67;;;;;;;;;;4999883;28;20803;-61
2023/02/08 05:59:14;;;;;;;8.48;1.75;;;;;;;;;;5001833;28;20741;-61
2023/02/08 06:01:40;;;;;;;7.18;1.30;;;;;;;;;;4998902;28;20065;-57
2023/02/08 06:04:07;;;;;;;5.18;1.40;;;;;;;;;;5000878;28;20148;-61
2023/02/08 06:06:33;;;;;;;6.60;1.30;;;;;;;;;;5000304;28;20136;-62
2023/02/08 06:09:00;;;;;;;2.78;1.00;;;;;;;;;;4999861;28;20048;-58
2023/02/08 06:11:27;;;;;;;3.22;0.90;;;;;;;;;;5000435;28;20069;-61
2023/02/08 06:13:53;;;;;;;8.30;1.05;;;;;;;;;;5000556;28;20394;-61
2023/02/08 06:16:20;;;;;;;4.05;1.27;;;;;;;;;;4999849;28;20037;-60
2023/02/08 06:18:47;;;;;;;3.58;1.20;;;;;;;;;;5000715;28;20275;-62
2023/02/08 06:21:13;;;;;;;3.97;1.00;;;;;;;;;;4998697;28;20041;-59
2023/02/08 06:23:41;;;;;;;3.80;0.90;;;;;;;;;;4999703;28;20084;-60
2023/02/08 06:26:07;;;;;;;6.20;0.77;;;;;;;;;;5000084;28;20042;-58
2023/02/08 06:28:34;;;;;;;1.40;0.50;;;;;;;;;;4998558;28;20463;-61
2023/02/08 06:31:01;;;;;;;2.45;0.70;;;;;;;;;;4998706;28;20070;-61
2023/02/08 06:33:27;;;;;;;1.92;0.50;;;;;;;;;;4997352;28;20132;-61
2023/02/08 06:35:54;;;;;;;0.80;0.40;;;;;;;;;;4998725;28;20037;-61
2023/02/08 06:38:21;;;;;;;1.42;0.50;;;;;;;;;;4999218;28;20038;-59
2023/02/08 06:40:48;;;;;;;1.58;0.40;;;;;;;;;;5005851;28;20406;-60
2023/02/08 06:43:16;;;;;;;1.33;0.50;;;;;;;;;;5010784;28;20519;-59
2023/02/08 06:45:44;;;;;;;2.63;0.60;;;;;;;;;;5008434;28;20553;-60
2023/02/08 06:48:11;;;;;;;1.45;0.45;;;;;;;;;;5007287;28;20049;-61
2023/02/08 06:50:38;;;;;;;1.83;0.50;;;;;;;;;;5005794;28;22706;-61
2023/02/08 06:53:05;;;;;;;0.70;0.38;;;;;;;;;;5005854;28;20034;-58
2023/02/08 06:55:31;;;;;;;1.27;0.45;;;;;;;;;;5005370;28;20135;-61
2023/02/08 06:57:58;;;;;;;1.50;0.50;;;;;;;;;;5003149;28;20038;-61
2023/02/08 07:00:24;;;;;;;1.80;0.50;;;;;;;;;;5003663;28;20034;-57
2023/02/08 07:02:51;;;;;;;1.42;0.50;;;;;;;;;;5004166;28;20143;-59
2023/02/08 07:05:18;;;;;;;2.00;0.60;;;;;;;;;;5002802;28;20456;-59
2023/02/08 07:07:47;;;;;;;1.83;0.50;;;;;;;;;;4999141;28;20077;-61
2023/02/08 07:10:14;;;;;;;1.17;0.40;;;;;;;;;;5000162;28;20252;-58
2023/02/08 07:12:41;;;;;;;1.58;0.57;;;;;;;;;;5000060;28;20040;-62
2023/02/08 07:15:07;;;;;;;1.38;0.55;;;;;;;;;;4999270;28;20365;-61
2023/02/08 07:17:34;;;;;;;3.38;0.40;;;;;;;;;;4998352;28;20398;-59
2023/02/08 07:20:01;;;;;;;4.22;0.80;;;;;;;;;;4998514;28;20043;-59
2023/02/08 07:22:27;;;;;;;2.05;0.73;;;;;;;;;;4998320;28;20049;-59
2023/02/08 07:24:54;;;;;;;2.97;0.60;;;;;;;;;;4998620;28;20133;-60
2023/02/08 07:27:20;;;;;;;1.45;0.50;;;;;;;;;;4998444;28;20124;-61
2023/02/08 07:29:47;;;;;;;3.08;0.60;;;;;;;;;;4998020;28;20033;-62
2023/02/08 07:32:14;;;;;;;5.15;0.60;;;;;;;;;;4998226;28;20510;-60
2023/02/08 07:34:40;;;;;;;3.70;0.77;;;;;;;;;;4998306;28;20085;-60
2023/02/08 07:37:07;;;;;;;1.20;0.40;;;;;;;;;;5011527;28;20045;-61
2023/02/08 07:39:34;;;;;;;1.73;0.60;;;;;;;;;;4997235;28;20574;-61
2023/02/08 07:42:01;;;;;;;3.70;0.50;;;;;;;;;;4999487;28;20087;-61
2023/02/08 07:44:27;;;;;;;1.17;0.40;;;;;;;;;;4997920;28;20778;-60
2023/02/08 07:46:54;;;;;;;1.83;0.40;;;;;;;;;;4997753;28;20040;-58
2023/02/08 07:49:21;;;;;;;0.77;0.40;;;;;;;;;;4998227;28;20037;-61
2023/02/08 07:51:47;;;;;;;2.78;0.50;;;;;;;;;;4999483;28;20111;-60
2023/02/08 07:54:14;;;;;;;2.08;0.50;;;;;;;;;;4997967;28;20041;-59
2023/02/08 07:56:41;;;;;;;2.65;0.73;;;;;;;;;;4998745;28;20034;-59
2023/02/08 07:59:07;;;;;;;2.08;0.50;;;;;;;;;;5001103;28;20037;-61
2023/02/08 08:01:34;;;;;;;1.60;0.47;;;;;;;;;;5010277;28;20030;-59
2023/02/08 08:04:01;;;;;;;1.98;0.50;;;;;;;;;;5000194;28;20045;-59
2023/02/08 08:06:28;;;;;;;3.15;0.65;;;;;;;;;;4998448;28;20054;-59
2023/02/08 08:08:54;;;;;;;2.08;0.40;;;;;;;;;;4998029;28;20037;-59
2023/02/08 08:11:21;;;;;;;4.15;0.60;;;;;;;;;;4994937;28;20861;-60
2023/02/08 08:13:48;;;;;;;5.68;0.60;;;;;;;;;;5000159;28;20050;-60
2023/02/08 08:16:15;;;;;;;0.90;0.47;;;;;;;;;;4998529;28;20147;-60
2023/02/08 08:18:42;;;;;;;1.95;0.60;;;;;;;;;;4998115;28;20069;-61
2023/02/08 08:21:08;;;;;;;1.05;0.40;;;;;;;;;;4997534;28;20045;-58
2023/02/08 08:23:35;;;;;;;1.27;0.40;;;;;;;;;;4997525;28;20069;-60
2023/02/08 08:26:28;;;;;;;1.17;0.40;;;;;;;;;;4999026;28;20064;-58
2023/02/08 08:28:55;;;;;;;2.08;0.50;;;;;;;;;;4995805;28;20554;-57
2023/02/08 08:31:22;;;;;;;1.42;0.43;;;;;;;;;;4998005;28;20056;-59
2023/02/08 08:33:49;;;;;;;1.65;0.43;;;;;;;;;;4999331;28;20503;-59
2023/02/08 08:36:16;;;;;;;3.58;0.57;;;;;;;;;;4998364;28;20041;-59
2023/02/08 08:38:42;;;;;;;1.48;0.50;;;;;;;;;;4996500;28;20042;-59
2023/02/08 08:41:10;;;;;;;0.90;0.40;;;;;;;;;;4996937;28;20030;-57
2023/02/08 08:43:37;;;;;;;1.48;0.50;;;;;;;;;;4997066;28;20384;-60
2023/02/08 08:46:05;;;;;;;3.88;0.47;;;;;;;;;;4998887;28;20151;-61
2023/02/08 08:48:33;;;;;;;5.53;0.68;;;;;;;;;;5001310;28;20053;-58
2023/02/08 08:51:00;;;;;;;2.17;0.60;;;;;;;;;;5000851;28;20046;-60
2023/02/08 08:53:26;;;;;;;1.65;0.50;;;;;;;;;;5001620;28;20060;-60
2023/02/08 08:55:53;;;;;;;1.45;0.47;;;;;;;;;;5000128;28;20343;-57
2023/02/08 08:58:20;;;;;;;2.88;0.80;;;;;;;;;;5000795;28;20034;-58
2023/02/08 09:00:46;;;;;;;1.10;0.40;;;;;;;;;;5000553;28;20048;-59
2023/02/08 09:03:13;;;;;;;1.27;0.40;;;;;;;;;;5000892;28;20168;-60
2023/02/08 09:05:39;;;;;;;1.02;0.40;;;;;;;;;;5000777;28;20042;-59
2023/02/08 09:08:06;;;;;;;0.75;0.40;;;;;;;;;;5001856;28;20471;-60
2023/02/08 09:10:33;;;;;;;1.15;0.40;;;;;;;;;;4999319;28;20757;-61
2023/02/08 09:13:00;;;;;;;2.30;0.60;;;;;;;;;;5000779;28;20037;-60
2023/02/08 09:15:26;;;;;;;2.10;0.52;;;;;;;;;;5000712;28;20046;-61
2023/02/08 09:17:53;;;;;;;1.17;0.40;;;;;;;;;;5001822;28;20071;-60
2023/02/08 09:20:20;;;;;;;1.05;0.40;;;;;;;;;;4999880;28;20156;-58
2023/02/08 09:22:47;;;;;;;1.15;0.50;;;;;;;;;;5002131;28;20057;-59
2023/02/08 09:25:13;;;;;;;1.95;0.50;;;;;;;;;;5001570;28;20045;-60
2023/02/08 09:27:40;;;;;;;0.73;0.40;;;;;;;;;;5001060;28;20044;-60
2023/02/08 09:30:07;;;;;;;1.48;0.50;;;;;;;;;;5000193;28;20049;-60
2023/02/08 09:32:35;;;;;;;1.92;0.50;;;;;;;;;;4999136;28;20038;-60
2023/02/08 09:35:02;;;;;;;1.52;0.50;;;;;;;;;;5001520;28;20038;-59
2023/02/08 09:37:29;;;;;;;2.72;0.60;;;;;;;;;;5000256;28;20053;-59
2023/02/08 09:39:58;;;;;;;1.00;0.40;;;;;;;;;;4999532;28;20132;-59
2023/02/08 09:42:37;;;;;;;0.65;0.40;;;;;;;;;;4999926;28;20046;-60
2023/02/08 09:45:36;;;;;;;3.80;0.60;;;;;;;;;;5000108;28;20037;-61
2023/02/08 09:48:15;;;;;;;1.55;0.50;;;;;;;;;;4976658;28;20639;-60
2023/02/08 09:50:44;;;;;;;2.17;0.60;;;;;;;;;;5003212;28;20111;-61
2023/02/08 09:53:14;;;;;;;1.73;0.60;;;;;;;;;;5013115;28;20042;-60
2023/02/08 09:55:46;;;;;;;2.38;0.50;;;;;;;;;;5011302;28;20076;-61
2023/02/08 09:58:19;;;;;;;0.73;0.40;;;;;;;;;;5004152;28;20037;-61
2023/02/08 10:00:47;;;;;;;1.83;0.55;;;;;;;;;;5009745;28;20065;-60
2023/02/08 10:03:21;;;;;;;2.78;0.60;;;;;;;;;;5011026;28;20038;-61
2023/02/08 10:05:48;;;;;;;2.85;0.60;;;;;;;;;;5011277;28;20472;-62
2023/02/08 10:08:14;;;;;;;2.67;0.50;;;;;;;;;;5020820;28;20069;-62
2023/02/08 10:10:55;;;;;;;2.17;0.50;;;;;;;;;;5018416;28;20041;-61
2023/02/08 10:13:30;;;;;;;1.33;0.50;;;;;;;;;;5018435;28;20052;-61
2023/02/08 10:16:14;;;;;;;1.85;0.50;;;;;;;;;;5021197;28;20048;-61
2023/02/08 10:18:56;;;;;;;1.10;0.40;;;;;;;;;;5019028;28;20033;-60
2023/02/08 10:21:28;;;;;;;1.17;0.43;;;;;;;;;;5018474;28;20132;-61
2023/02/08 10:24:03;;;;;;;3.38;0.50;;;;;;;;;;5018485;28;20694;-62
2023/02/08 10:26:35;;;;;;;5.55;0.55;;;;;;;;;;5018395;28;20057;-61
2023/02/08 10:29:16;;;;;;;1.15;0.40;;;;;;;;;;5019429;28;20048;-62
2023/02/08 10:31:46;;;;;;;0.95;0.38;;;;;;;;;;5018631;28;20049;-62
2023/02/08 10:34:28;;;;;;;0.73;0.40;;;;;;;;;;5019329;28;20068;-56
2023/02/08 10:36:55;;;;;;;0.70;0.32;;;;;;;;;;5019553;28;20092;-60
2023/02/08 10:39:29;;;;;;;1.58;0.50;;;;;;;;;;5020227;28;20148;-62
2023/02/08 10:41:56;;;;;;;0.75;0.30;;;;;;;;;;5023349;28;20052;-60
2023/02/08 10:44:26;;;;;;;1.02;0.40;;;;;;;;;;5021731;28;20128;-62
2023/02/08 10:47:08;;;;;;;1.10;0.40;;;;;;;;;;5023139;28;20052;-62
2023/02/08 10:49:52;;;;;;;1.23;0.40;;;;;;;;;;5020526;28;20041;-61
2023/02/08 10:52:19;;;;;;;1.45;0.52;;;;;;;;;;5019897;28;20041;-61
2023/02/08 10:54:46;;;;;;;1.73;0.55;;;;;;;;;;5019680;28;20048;-62
2023/02/08 10:57:22;;;;;;;2.13;0.50;;;;;;;;;;5019616;28;20115;-63
2023/02/08 10:59:51;;;;;;;1.20;0.40;;;;;;;;;;5016891;28;20060;-62
2023/02/08 11:02:27;;;;;;;1.33;0.50;;;;;;;;;;5018241;28;20042;-61
2023/02/08 11:04:58;;;;;;;1.02;0.40;;;;;;;;;;5017552;28;20725;-62
2023/02/08 11:07:25;;;;;;;2.55;0.40;;;;;;;;;;4999521;28;20038;-62
2023/02/08 11:09:52;;;;;;;4.50;0.68;;;;;;;;;;4997948;28;20046;-62
2023/02/08 11:12:22;;;;;;;1.15;0.40;;;;;;;;;;4998252;28;20478;-62
2023/02/08 11:14:51;;;;;;;1.63;0.50;;;;;;;;;;4998760;28;20052;-63
2023/02/08 11:17:28;;;;;;;1.73;0.40;;;;;;;;;;4998592;28;20034;-62
2023/02/08 11:19:58;;;;;;;0.63;0.30;;;;;;;;;;4997954;28;20044;-65
2023/02/08 11:22:26;;;;;;;1.00;0.30;;;;;;;;;;4998804;28;20506;-63
2023/02/08 11:24:58;;;;;;;2.30;0.80;;;;;;;;;;4997794;28;20499;-62
2023/02/08 11:27:32;;;;;;;4.07;1.98;;;;;;;;;;4998805;28;20034;-62
2023/02/08 11:30:14;;;;;;;5.43;2.33;;;;;;;;;;4998709;28;20041;-62
2023/02/08 11:32:42;;;;;;;3.40;1.60;;;;;;;;;;5000406;28;20037;-61
2023/02/08 11:35:20;;;;;;;7.03;3.22;;;;;;;;;;5000390;28;20053;-62
2023/02/08 11:37:51;;;;;;;8.32;2.70;;;;;;;;;;4999678;28;20052;-60
2023/02/08 11:40:22;;;;;;;5.40;2.08;;;;;;;;;;5011788;28;20046;-60
2023/02/08 11:42:49;;;;;;;6.50;2.95;;;;;;;;;;5019186;28;20042;-60
2023/02/08 11:45:19;;;;;;;7.43;3.17;;;;;;;;;;5001698;28;20072;-63
2023/02/08 11:47:47;;;;;;;5.47;2.67;;;;;;;;;;5006756;28;20054;-61
2023/02/08 11:50:23;;;;;;;9.32;3.50;;;;;;;;;;5017503;28;20044;-63
2023/02/08 11:52:55;;;;;;;8.57;3.22;;;;;;;;;;5021805;28;20128;-62
2023/02/08 11:55:22;;;;;;;5.65;2.55;;;;;;;;;;5022379;28;20037;-62
2023/02/08 11:58:03;;;;;;;6.75;2.70;;;;;;;;;;5022199;28;20136;-64
2023/02/08 12:00:34;;;;;;;4.43;1.83;;;;;;;;;;5023471;28;20073;-64
2023/02/08 12:03:03;;;;;;;8.93;3.28;;;;;;;;;;5022523;28;20045;-61
2023/02/08 12:05:48;;;;;;;5.25;2.35;;;;;;;;;;5016888;28;20132;-62
2023/02/08 12:08:21;;;;;;;5.53;3.05;;;;;;;;;;5021676;28;21431;-61
2023/02/08 12:11:03;;;;;;;5.77;2.67;;;;;;;;;;5010268;28;20133;-61
2023/02/08 12:13:32;;;;;;;5.47;1.95;;;;;;;;;;5009877;28;20033;-65
2023/02/08 12:16:19;;;;;;;4.53;2.17;;;;;;;;;;5001871;28;20045;-60
2023/02/08 12:19:15;;;;;;;6.15;2.08;;;;;;;;;;4982946;28;20034;-62
2023/02/08 12:21:45;;;;;;;5.03;2.35;;;;;;;;;;5005577;28;20478;-61
2023/02/08 12:24:31;;;;;;;4.75;1.92;;;;;;;;;;5036337;28;20049;-63
2023/02/08 12:27:07;;;;;;;5.13;2.47;;;;;;;;;;5025414;28;20068;-64
2023/02/08 12:29:34;;;;;;;5.63;2.65;;;;;;;;;;5020861;28;20053;-61
2023/02/08 12:32:06;;;;;;;5.97;2.60;;;;;;;;;;5026112;28;20041;-65
2023/02/08 12:34:42;;;;;;;5.22;2.38;;;;;;;;;;5023046;28;20518;-62
2023/02/08 12:42:52;;;;;;;6.55;2.38;;;;;;;;;;5017780;28;20112;-60
2023/02/08 12:45:27;;;;;;;4.35;1.75;;;;;;;;;;5005089;28;20037;-65
2023/02/08 12:48:11;;;;;;;4.68;2.22;;;;;;;;;;5005799;28;20041;-61
2023/02/08 12:50:38;;;;;;;5.90;2.33;;;;;;;;;;5000235;28;20403;-61
2023/02/08 12:53:15;;;;;;;6.47;2.45;;;;;;;;;;5002339;28;20194;-61
2023/02/08 12:55:45;;;;;;;8.95;3.50;;;;;;;;;;4999697;28;20034;-60
2023/02/08 12:58:22;;;;;;;7.60;3.50;;;;;;;;;;5002812;28;20065;-58
2023/02/08 13:00:50;;;;;;;6.85;3.45;;;;;;;;;;5020903;28;20049;-66
2023/02/08 13:03:31;;;;;;;5.35;3.08;;;;;;;;;;5022016;28;20095;-61
2023/02/08 13:05:57;;;;;;;6.70;3.20;;;;;;;;;;5020128;28;20041;-61
2023/02/08 13:08:43;;;;;;;6.25;2.90;;;;;;;;;;5020735;28;20626;-60
2023/02/08 13:11:28;;;;;;;7.13;3.30;;;;;;;;;;5003171;28;20041;-62
2023/02/08 13:14:02;;;;;;;5.22;2.20;;;;;;;;;;5019854;28;20045;-59
2023/02/08 13:16:33;;;;;;;7.38;3.63;;;;;;;;;;5021228;28;20095;-61
2023/02/08 13:19:21;;;;;;;6.30;1.98;;;;;;;;;;5021838;28;20041;-61
2023/02/08 13:21:49;;;;;;;4.68;2.22;;;;;;;;;;5020500;28;20041;-63
2023/02/08 13:24:25;;;;;;;6.43;2.35;;;;;;;;;;5020349;28;20056;-61
2023/02/08 13:26:52;;;;;;;7.18;3.05;;;;;;;;;;5021427;28;20060;-61
2023/02/08 13:29:20;;;;;;;9.68;2.83;;;;;;;;;;5020526;28;20048;-63
2023/02/08 13:31:48;;;;;;;6.18;2.90;;;;;;;;;;5019511;28;20568;-64
2023/02/08 13:34:30;;;;;;;5.15;2.15;;;;;;;;;;5020502;28;20064;-59
2023/02/08 13:36:59;;;;;;;5.90;2.95;;;;;;;;;;5017989;28;20070;-60
2023/02/08 13:39:35;;;;;;;4.18;2.40;;;;;;;;;;5018363;28;20054;-58
2023/02/08 13:42:02;;;;;;;3.20;1.65;;;;;;;;;;5020680;28;20083;-60
2023/02/08 13:44:31;;;;;;;5.95;2.38;;;;;;;;;;5019448;28;20037;-61
2023/02/08 13:46:58;;;;;;;6.95;2.72;;;;;;;;;;5020835;28;20047;-62
2023/02/08 13:49:51;;;;;;;6.43;2.25;;;;;;;;;;5018342;28;20033;-61
2023/02/08 13:52:30;;;;;;;5.05;2.90;;;;;;;;;;5018600;28;20072;-63
2023/02/08 13:55:15;;;;;;;6.93;3.60;;;;;;;;;;5018802;28;20659;-60
2023/02/08 13:57:52;;;;;;;5.70;2.47;;;;;;;;;;5017740;28;20045;-61
2023/02/08 14:00:23;;;;;;;3.63;1.75;;;;;;;;;;5013489;28;20037;-61
2023/02/08 14:03:03;;;;;;;5.38;2.40;;;;;;;;;;5020731;28;20064;-61
2023/02/08 14:05:39;;;;;;;5.85;2.58;;;;;;;;;;5019537;28;20051;-62
2023/02/08 14:08:07;;;;;;;4.53;2.70;;;;;;;;;;5020330;28;20054;-64
2023/02/08 14:10:46;;;;;;;5.65;2.22;;;;;;;;;;4999864;28;20465;-62
2023/02/08 14:13:24;;;;;;;4.18;2.05;;;;;;;;;;5017869;28;20509;-62
2023/02/08 14:16:10;;;;;;;4.30;2.05;;;;;;;;;;5000638;28;20037;-61
2023/02/08 14:18:37;;;;;;;5.15;2.80;;;;;;;;;;5018308;28;20033;-64
2023/02/08 14:21:05;;;;;;;4.97;2.38;;;;;;;;;;5020016;28;20533;-62
2023/02/08 14:23:34;;;;;;;5.65;2.35;;;;;;;;;;5015343;28;20053;-61
2023/02/08 14:26:06;;;;;;;3.92;2.15;;;;;;;;;;5018704;28;20418;-61
2023/02/08 14:28:42;;;;;;;5.07;2.25;;;;;;;;;;5012282;28;20539;-61
2023/02/08 14:31:10;;;;;;;6.45;2.60;;;;;;;;;;5020077;28;20041;-62
2023/02/08 14:33:39;;;;;;;6.85;2.10;;;;;;;;;;5001316;28;20048;-61
2023/02/08 14:36:08;;;;;;;4.72;2.50;;;;;;;;;;5019845;28;20409;-62
2023/02/08 14:38:54;;;;;;;5.18;2.65;;;;;;;;;;5015937;28;20052;-61
2023/02/08 14:42:00;;;;;;;5.07;1.90;;;;;;;;;;5018630;28;20064;-61
2023/02/08 14:44:40;;;;;;;5.78;2.45;;;;;;;;;;4944372;28;20056;-61
2023/02/08 14:47:25;;;;;;;4.88;2.20;;;;;;;;;;4947672;28;20147;-62
2023/02/08 14:50:10;;;;;;;4.10;1.83;;;;;;;;;;4997182;28;20180;-63
2023/02/08 14:52:37;;;;;;;3.40;1.55;;;;;;;;;;4999375;28;20111;-59
2023/02/08 14:55:17;;;;;;;4.20;1.67;;;;;;;;;;5018420;28;20045;-63
2023/02/08 14:57:44;;;;;;;6.05;2.45;;;;;;;;;;5018525;28;20509;-62
2023/02/08 15:00:32;;;;;;;7.32;1.95;;;;;;;;;;5021044;28;20041;-65
2023/02/08 15:03:01;;;;;;;3.20;1.50;;;;;;;;;;5015810;28;20041;-64
2023/02/08 15:05:29;;;;;;;3.75;1.42;;;;;;;;;;4998866;28;20041;-62
2023/02/08 15:07:57;;;;;;;3.67;1.73;;;;;;;;;;5020208;28;20474;-64
2023/02/08 15:10:25;;;;;;;3.95;1.92;;;;;;;;;;5019327;28;20048;-61